Time;durP1;ratioP1;P1;durP2;ratioP2;P2;SDS_P1;SDS_P2;PMS_P1;PMS_P2;Temp;Humidity;BMP_temperature;BMP_pressure;BME280_temperature;BME280_humidity;BME280_pressure;Samples;Min_cycle;Max_cycle;Signal;HPM_P1;HPM_P2
2021/08/31 00:02:16;;;;;;;12.80;9.03;;;;;;;30.95;36.65;98287.00;5041701;28;20550;-74
2021/08/31 00:04:44;;;;;;;16.97;9.93;;;;;;;32.20;34.69;98284.53;5042183;28;20218;-74
2021/08/31 00:07:12;;;;;;;14.13;9.70;;;;;;;31.98;34.94;98282.84;5048021;28;20199;-74
2021/08/31 00:09:39;;;;;;;13.17;9.07;;;;;;;31.96;34.57;98296.19;5042002;28;20610;-74
2021/08/31 00:12:07;;;;;;;12.83;9.27;;;;;;;31.66;35.60;98288.97;5054260;28;20222;-74
2021/08/31 00:14:36;;;;;;;14.57;9.83;;;;;;;31.50;35.73;98298.94;5054080;28;20232;-75
2021/08/31 00:17:04;;;;;;;16.17;10.17;;;;;;;30.97;37.27;98284.72;5054329;28;20222;-73
2021/08/31 00:19:31;;;;;;;14.63;9.93;;;;;;;31.35;36.27;98284.84;5037160;28;20211;-76
2021/08/31 00:22:00;;;;;;;13.67;9.90;;;;;;;29.77;39.49;98280.13;5046705;28;20579;-74
2021/08/31 00:24:27;;;;;;;14.70;10.23;;;;;;;30.44;38.44;98275.94;5038271;28;20221;-74
2021/08/31 00:26:54;;;;;;;16.20;9.77;;;;;;;30.32;38.55;98288.72;5037787;28;20623;-74
2021/08/31 00:29:22;;;;;;;17.00;9.50;;;;;;;30.95;37.48;98278.72;5045725;28;20207;-74
2021/08/31 00:31:49;;;;;;;16.37;10.33;;;;;;;31.34;36.33;98286.00;5035254;28;20199;-74
2021/08/31 00:34:16;;;;;;;16.73;10.97;;;;;;;30.93;37.30;98286.53;5034567;28;20229;-74
2021/08/31 00:36:44;;;;;;;16.83;10.83;;;;;;;30.28;38.53;98283.06;5044213;28;20661;-74
2021/08/31 00:39:12;;;;;;;14.40;10.63;;;;;;;29.92;39.31;98281.63;5040393;28;20217;-74
2021/08/31 00:41:40;;;;;;;16.73;10.47;;;;;;;30.58;37.87;98289.56;5036150;28;20672;-76
2021/08/31 00:44:17;;;;;;;16.43;10.83;;;;;;;30.77;37.97;98290.88;5048335;28;20215;-76
2021/08/31 00:46:45;;;;;;;15.33;10.67;;;;;;;31.24;37.13;98289.91;5036948;28;20190;-73
2021/08/31 00:49:13;;;;;;;15.03;10.60;;;;;;;30.74;37.31;98293.50;5054575;28;20738;-76
2021/08/31 00:51:40;;;;;;;15.63;10.70;;;;;;;30.56;38.27;98283.56;5046851;28;20268;-74
2021/08/31 00:54:07;;;;;;;15.03;10.93;;;;;;;31.51;36.58;98288.69;5040237;28;20230;-73
2021/08/31 00:56:36;;;;;;;17.40;10.87;;;;;;;31.37;36.51;98283.38;5045230;28;20206;-73
2021/08/31 00:59:06;;;;;;;16.00;10.77;;;;;;;30.94;37.95;98284.56;5045623;28;20208;-77
2021/08/31 01:01:33;;;;;;;17.00;12.13;;;;;;;30.75;38.06;98287.66;5033340;28;20242;-76
2021/08/31 01:04:00;;;;;;;15.53;11.47;;;;;;;30.77;37.39;98299.16;5037169;28;20218;-75
2021/08/31 01:06:28;;;;;;;17.83;12.07;;;;;;;30.33;38.60;98296.66;5037176;28;20213;-76
2021/08/31 01:08:56;;;;;;;19.60;12.40;;;;;;;30.78;38.14;98297.22;5033483;28;20210;-75
2021/08/31 01:11:23;;;;;;;20.13;12.30;;;;;;;30.52;38.65;98299.13;5039717;28;20204;-76
2021/08/31 01:13:52;;;;;;;15.73;11.60;;;;;;;30.00;39.62;98294.63;5039232;28;20309;-75
2021/08/31 01:16:19;;;;;;;20.73;13.20;;;;;;;29.83;40.14;98291.78;5037975;28;20727;-75
2021/08/31 01:18:47;;;;;;;17.93;12.60;;;;;;;30.32;38.84;98291.47;5033134;28;20673;-75
2021/08/31 01:21:15;;;;;;;18.70;12.63;;;;;;;30.30;39.11;98291.00;5041391;28;20205;-75
2021/08/31 01:23:46;;;;;;;19.00;13.27;;;;;;;29.72;40.10;98290.44;5033974;28;20785;-75
2021/08/31 01:26:16;;;;;;;21.73;13.47;;;;;;;30.68;38.30;98297.53;5052962;28;20186;-76
2021/08/31 01:28:43;;;;;;;19.67;13.17;;;;;;;29.37;40.97;98288.63;5034094;28;20249;-76
2021/08/31 01:31:11;;;;;;;20.50;13.93;;;;;;;30.57;38.86;98305.31;5040943;28;20560;-76
2021/08/31 01:33:38;;;;;;;23.00;13.10;;;;;;;31.14;37.23;98305.94;5040483;28;20226;-75
2021/08/31 01:36:16;;;;;;;26.33;14.80;;;;;;;30.68;38.26;98306.63;5032813;28;20714;-74
2021/08/31 01:38:44;;;;;;;22.87;14.50;;;;;;;30.37;39.11;98299.59;5032675;28;20191;-73
2021/08/31 01:41:12;;;;;;;20.40;13.73;;;;;;;29.93;39.80;98297.00;5039749;28;20202;-74
2021/08/31 01:43:40;;;;;;;23.17;15.20;;;;;;;30.88;38.44;98303.22;5033374;28;20562;-73
2021/08/31 01:46:08;;;;;;;25.37;15.10;;;;;;;30.52;38.78;98305.47;5052585;28;20561;-74
2021/08/31 01:48:35;;;;;;;22.80;15.17;;;;;;;30.11;38.93;98301.47;5051652;28;20218;-73
2021/08/31 01:51:03;;;;;;;22.47;14.83;;;;;;;30.51;38.75;98305.78;5032113;28;20693;-76
2021/08/31 01:53:30;;;;;;;23.47;15.27;;;;;;;31.18;37.29;98309.69;5040277;28;20201;-74
2021/08/31 01:55:57;;;;;;;22.67;13.83;;;;;;;30.31;39.37;98295.38;5048704;28;20265;-73
2021/08/31 01:58:25;;;;;;;23.23;14.23;;;;;;;31.10;37.41;98303.03;5040698;28;20219;-73
2021/08/31 02:00:54;;;;;;;22.63;13.93;;;;;;;31.11;37.32;98304.66;5040317;28;20218;-74
2021/08/31 02:03:21;;;;;;;22.10;13.93;;;;;;;31.03;37.52;98299.97;5032261;28;20214;-74
2021/08/31 02:05:49;;;;;;;26.27;14.47;;;;;;;30.65;37.78;98303.69;5048268;28;20198;-74
2021/08/31 02:08:16;;;;;;;24.40;14.30;;;;;;;30.45;38.06;98307.84;5038358;28;20202;-76
2021/08/31 02:10:44;;;;;;;22.43;14.93;;;;;;;29.40;40.51;98299.78;5042227;28;20212;-73
2021/08/31 02:13:11;;;;;;;22.87;14.63;;;;;;;30.31;38.61;98309.13;5032394;28;20534;-74
2021/08/31 02:15:38;;;;;;;22.87;14.57;;;;;;;30.97;37.23;98311.50;5040078;28;20593;-73
2021/08/31 02:18:07;;;;;;;21.20;14.50;;;;;;;31.13;36.77;98309.84;5040708;28;20688;-74
2021/08/31 02:20:35;;;;;;;23.13;14.77;;;;;;;30.94;36.94;98307.44;5043484;28;20209;-73
2021/08/31 02:23:02;;;;;;;20.57;14.60;;;;;;;31.01;36.91;98312.47;5039744;28;20202;-74
2021/08/31 02:25:30;;;;;;;23.03;14.87;;;;;;;30.64;37.75;98313.88;5043730;28;20214;-74
2021/08/31 02:27:57;;;;;;;23.90;15.17;;;;;;;30.24;37.95;98311.53;5051866;28;20210;-74
2021/08/31 02:30:24;;;;;;;24.63;14.63;;;;;;;30.45;37.86;98315.34;5045230;28;20203;-74
2021/08/31 02:32:52;;;;;;;19.77;13.27;;;;;;;31.28;36.63;98318.47;5051990;28;20201;-75
2021/08/31 02:35:21;;;;;;;20.13;14.07;;;;;;;30.73;37.56;98313.91;5051518;28;20231;-76
2021/08/31 02:37:49;;;;;;;20.50;13.70;;;;;;;31.26;36.38;98323.50;5041152;28;20203;-75
2021/08/31 02:40:16;;;;;;;22.97;14.67;;;;;;;30.99;36.96;98318.31;5038177;28;20308;-75
2021/08/31 02:42:43;;;;;;;23.07;14.70;;;;;;;30.70;37.33;98318.13;5038719;28;20310;-73
2021/08/31 02:45:11;;;;;;;23.00;14.40;;;;;;;30.60;37.45;98317.63;5044398;28;20222;-75
2021/08/31 02:47:39;;;;;;;23.70;14.80;;;;;;;31.08;36.62;98318.28;5035091;28;20210;-75
2021/08/31 02:50:08;;;;;;;24.07;14.47;;;;;;;30.38;37.74;98314.97;5038895;28;20573;-75
2021/08/31 02:52:36;;;;;;;23.07;14.70;;;;;;;30.11;37.75;98318.78;5039740;28;20205;-75
2021/08/31 02:55:04;;;;;;;21.80;14.40;;;;;;;30.70;37.42;98314.59;5032929;28;20230;-75
2021/08/31 02:57:31;;;;;;;26.03;15.70;;;;;;;30.78;37.40;98316.50;5043446;28;20210;-76
2021/08/31 03:00:00;;;;;;;22.20;14.77;;;;;;;30.96;37.06;98318.16;5043819;28;20282;-77
2021/08/31 03:02:28;;;;;;;24.23;15.03;;;;;;;30.47;38.11;98308.38;5051188;28;20271;-76
2021/08/31 03:04:55;;;;;;;22.90;14.57;;;;;;;29.83;39.54;98311.03;5046763;28;20241;-76
2021/08/31 03:07:23;;;;;;;25.97;15.47;;;;;;;30.00;39.60;98314.69;5048402;28;20206;-77
2021/08/31 03:09:51;;;;;;;23.27;14.77;;;;;;;30.25;38.27;98329.72;5037298;28;20686;-77
2021/08/31 03:12:19;;;;;;;23.20;14.83;;;;;;;30.49;37.74;98327.31;5048127;28;20203;-77
2021/08/31 03:14:46;;;;;;;22.97;14.73;;;;;;;30.68;37.91;98323.16;5052215;28;20238;-77
2021/08/31 03:17:13;;;;;;;23.77;15.67;;;;;;;30.87;37.03;98329.16;5047578;28;20202;-77
2021/08/31 03:19:41;;;;;;;21.80;14.47;;;;;;;30.47;38.24;98324.06;5041129;28;20209;-77
2021/08/31 03:22:10;;;;;;;24.90;15.30;;;;;;;30.02;38.92;98328.13;5046555;28;20201;-77
2021/08/31 03:24:37;;;;;;;25.13;15.77;;;;;;;30.86;37.38;98324.78;5046604;28;20254;-76
2021/08/31 03:27:06;;;;;;;25.27;15.27;;;;;;;30.66;37.36;98324.63;5054654;28;20205;-76
2021/08/31 03:29:34;;;;;;;23.93;16.10;;;;;;;30.47;38.11;98324.06;5046503;28;20213;-76
2021/08/31 03:32:01;;;;;;;26.90;17.53;;;;;;;29.88;39.24;98321.91;5054608;28;20194;-76
2021/08/31 03:34:29;;;;;;;27.63;16.00;;;;;;;30.21;39.08;98325.97;5046739;28;20234;-76
2021/08/31 03:36:56;;;;;;;32.23;17.93;;;;;;;30.63;37.14;98341.75;5035361;28;20202;-76
2021/08/31 03:39:23;;;;;;;31.60;17.57;;;;;;;30.27;37.83;98335.69;5045732;28;20293;-76
2021/08/31 03:41:50;;;;;;;26.63;16.80;;;;;;;30.85;36.97;98342.47;5047250;28;20210;-76
2021/08/31 03:44:19;;;;;;;26.13;16.20;;;;;;;29.89;39.56;98321.59;5050160;28;20223;-76
2021/08/31 03:46:46;;;;;;;24.60;16.23;;;;;;;30.66;38.16;98335.66;5040497;28;20577;-76
2021/08/31 03:49:14;;;;;;;27.00;17.13;;;;;;;30.45;38.10;98327.13;5046185;28;20203;-87
2021/08/31 03:51:41;;;;;;;29.23;17.10;;;;;;;30.41;37.96;98331.66;5046728;28;20205;-77
2021/08/31 03:54:08;;;;;;;27.60;17.30;;;;;;;30.24;38.67;98326.13;5039306;28;20213;-79
2021/08/31 03:56:35;;;;;;;24.50;16.57;;;;;;;30.86;37.29;98338.56;5050988;28;20700;-79
2021/08/31 03:59:03;;;;;;;25.73;15.93;;;;;;;30.08;39.10;98335.09;5043002;28;20331;-79
2021/08/31 04:01:31;;;;;;;25.60;15.77;;;;;;;30.13;38.31;98341.31;5051006;28;20289;-78
2021/08/31 04:03:59;;;;;;;28.83;17.53;;;;;;;29.14;41.09;98342.03;5046908;28;20237;-83
2021/08/31 04:06:26;;;;;;;25.23;16.30;;;;;;;29.95;38.82;98347.84;5046487;28;20577;-78
2021/08/31 04:08:54;;;;;;;26.43;15.87;;;;;;;30.87;37.61;98344.91;5037783;28;20221;-77
2021/08/31 04:11:21;;;;;;;27.27;16.53;;;;;;;31.44;36.29;98354.63;5053437;28;20604;-78
2021/08/31 04:13:48;;;;;;;28.03;16.90;;;;;;;30.95;36.64;98346.84;5044429;28;20218;-77
2021/08/31 04:16:15;;;;;;;27.27;16.80;;;;;;;28.77;41.87;98336.81;5036020;28;20226;-77
2021/08/31 04:18:44;;;;;;;26.57;16.00;;;;;;;29.94;39.70;98335.22;5044016;28;20210;-77
2021/08/31 04:21:11;;;;;;;24.97;15.53;;;;;;;30.56;38.17;98349.69;5040762;28;20205;-77
2021/08/31 04:23:39;;;;;;;24.57;15.60;;;;;;;30.32;37.79;98361.16;5033773;28;20227;-78
2021/08/31 04:26:06;;;;;;;23.23;15.23;;;;;;;29.99;38.67;98357.09;5050251;28;20544;-77
2021/08/31 04:28:33;;;;;;;25.13;15.90;;;;;;;31.05;36.64;98363.06;5053820;28;20213;-78
2021/08/31 04:31:00;;;;;;;25.27;15.80;;;;;;;30.55;37.66;98370.13;5034071;28;20657;-77
2021/08/31 04:33:28;;;;;;;23.20;15.00;;;;;;;30.84;37.48;98367.59;5041829;28;20203;-77
2021/08/31 04:35:56;;;;;;;25.03;14.87;;;;;;;30.79;37.32;98376.00;5045329;28;20239;-77
2021/08/31 04:38:24;;;;;;;22.27;14.37;;;;;;;30.82;37.38;98375.38;5038821;28;20202;-77
2021/08/31 04:40:51;;;;;;;24.27;15.57;;;;;;;31.11;35.97;98381.09;5050376;28;20204;-77
2021/08/31 04:43:18;;;;;;;22.97;15.67;;;;;;;31.28;35.89;98375.59;5048621;28;20211;-77
2021/08/31 04:45:46;;;;;;;23.70;15.63;;;;;;;30.97;36.45;98377.66;5045679;28;20206;-77
2021/08/31 04:48:13;;;;;;;25.23;14.70;;;;;;;30.05;38.18;98377.84;5039987;28;20551;-77
2021/08/31 04:50:40;;;;;;;25.20;15.33;;;;;;;30.41;37.49;98364.72;5050052;28;20207;-77
2021/08/31 04:53:09;;;;;;;21.63;13.83;;;;;;;31.89;35.08;98381.50;5041905;28;20195;-77
2021/08/31 04:55:36;;;;;;;21.33;14.27;;;;;;;30.50;36.96;98376.59;5053063;28;20233;-77
2021/08/31 04:58:04;;;;;;;22.13;14.47;;;;;;;30.46;37.63;98380.31;5045631;28;20725;-78
2021/08/31 05:00:31;;;;;;;24.27;14.53;;;;;;;31.33;35.82;98384.50;5045509;28;20673;-77
2021/08/31 05:02:58;;;;;;;22.73;15.07;;;;;;;31.94;34.75;98397.06;5045536;28;20286;-77
2021/08/31 05:05:26;;;;;;;24.10;16.17;;;;;;;32.26;34.03;98402.00;5037715;28;20581;-77
2021/08/31 05:07:53;;;;;;;20.20;13.97;;;;;;;31.45;35.57;98394.88;5051812;28;20641;-77
2021/08/31 05:10:22;;;;;;;24.20;14.77;;;;;;;29.59;38.50;98387.66;5038443;28;20276;-77
2021/08/31 05:12:49;;;;;;;22.63;15.30;;;;;;;31.94;34.65;98405.34;5034769;28;20201;-77
2021/08/31 05:15:17;;;;;;;21.37;14.40;;;;;;;31.81;34.66;98398.91;5040188;28;20223;-77
2021/08/31 05:17:44;;;;;;;25.97;14.93;;;;;;;31.85;34.75;98413.69;5051326;28;20211;-77
2021/08/31 05:20:12;;;;;;;24.40;14.10;;;;;;;31.25;35.81;98403.81;5040483;28;20204;-78
2021/08/31 05:22:39;;;;;;;22.70;14.83;;;;;;;30.85;36.13;98407.78;5034361;28;20221;-77
2021/08/31 05:25:07;;;;;;;21.83;14.60;;;;;;;31.62;35.35;98411.41;5034340;28;20302;-78
2021/08/31 05:27:36;;;;;;;22.63;14.80;;;;;;;30.33;37.89;98406.03;5037057;28;20219;-78
2021/08/31 05:30:04;;;;;;;19.27;13.43;;;;;;;30.89;36.63;98409.59;5054269;28;20217;-79
2021/08/31 05:32:31;;;;;;;21.47;14.90;;;;;;;30.82;36.31;98411.22;5054005;28;20211;-78
2021/08/31 05:34:58;;;;;;;26.10;15.30;;;;;;;31.19;36.14;98413.34;5053671;28;20231;-78
2021/08/31 05:37:25;;;;;;;23.73;14.00;;;;;;;31.14;35.48;98428.13;5054808;28;20226;-78
2021/08/31 05:39:53;;;;;;;23.43;14.27;;;;;;;31.49;35.57;98415.97;5053906;28;20211;-78
2021/08/31 05:42:20;;;;;;;26.77;14.70;;;;;;;32.16;34.11;98427.22;5053890;28;20207;-78
2021/08/31 05:44:49;;;;;;;21.63;13.57;;;;;;;31.82;34.79;98433.63;5043582;28;20260;-79
2021/08/31 05:47:16;;;;;;;33.53;16.03;;;;;;;30.67;37.21;98434.53;5047637;28;20220;-78
2021/08/31 05:49:43;;;;;;;26.30;14.00;;;;;;;30.54;37.23;98435.44;5052756;28;20683;-81
2021/08/31 05:52:12;;;;;;;45.07;17.37;;;;;;;30.36;37.32;98432.94;5052963;28;20204;-78
2021/08/31 05:54:39;;;;;;;25.23;13.07;;;;;;;30.95;36.68;98429.53;5052658;28;20333;-79
2021/08/31 05:57:10;;;;;;;20.47;12.87;;;;;;;30.90;36.41;98426.94;5049785;28;20223;-77
2021/08/31 05:59:39;;;;;;;21.00;12.40;;;;;;;31.32;35.99;98437.25;5052792;28;20664;-78
2021/08/31 06:02:09;;;;;;;21.10;13.57;;;;;;;30.53;37.28;98431.06;5044590;28;20288;-77
2021/08/31 06:04:36;;;;;;;17.23;12.03;;;;;;;28.62;40.62;98430.56;5043484;28;20218;-78
2021/08/31 06:07:05;;;;;;;17.07;11.17;;;;;;;30.91;36.44;98434.91;5039796;28;20206;-77
2021/08/31 06:09:35;;;;;;;14.83;11.50;;;;;;;29.56;39.88;98437.81;5039430;28;20202;-77
2021/08/31 06:12:03;;;;;;;19.13;11.43;;;;;;;29.92;38.93;98436.59;5052772;28;20209;-81
2021/08/31 06:14:33;;;;;;;19.73;12.40;;;;;;;30.23;38.39;98436.59;5042941;28;20227;-75
2021/08/31 06:17:00;;;;;;;21.13;11.77;;;;;;;29.53;39.28;98444.72;5050317;28;20223;-79
2021/08/31 06:19:29;;;;;;;14.87;10.63;;;;;;;30.33;38.56;98439.06;5046442;28;20211;-82
2021/08/31 06:21:56;;;;;;;18.30;10.67;;;;;;;29.84;39.76;98433.78;5044799;28;20203;-79
2021/08/31 06:24:23;;;;;;;15.03;10.93;;;;;;;29.81;39.47;98442.66;5044764;28;20228;-80
2021/08/31 06:26:51;;;;;;;16.00;10.40;;;;;;;29.85;39.96;98440.91;5051148;28;20570;-77
2021/08/31 06:29:18;;;;;;;15.70;10.47;;;;;;;29.18;39.78;98450.25;5038991;28;20294;-77
2021/08/31 06:31:45;;;;;;;14.93;9.83;;;;;;;30.57;37.55;98448.59;5040162;28;20279;-76
2021/08/31 06:34:13;;;;;;;15.33;9.97;;;;;;;31.10;36.12;98462.16;5052544;28;20314;-76
2021/08/31 06:36:42;;;;;;;13.27;9.57;;;;;;;30.09;37.92;98452.38;5055658;28;20225;-77
2021/08/31 06:39:09;;;;;;;16.33;10.80;;;;;;;30.38;37.36;98460.97;5040140;28;20204;-76
2021/08/31 06:41:36;;;;;;;14.47;9.60;;;;;;;29.08;40.53;98454.03;5048324;28;20216;-77
2021/08/31 06:44:04;;;;;;;14.87;9.50;;;;;;;30.84;36.87;98462.13;5056134;28;20252;-76
2021/08/31 06:46:31;;;;;;;16.37;9.47;;;;;;;30.29;37.41;98460.13;5039076;28;20208;-76
2021/08/31 06:48:59;;;;;;;16.80;9.97;;;;;;;28.57;42.05;98449.91;5043637;28;20999;-76
2021/08/31 06:51:26;;;;;;;13.83;9.43;;;;;;;29.35;40.51;98456.69;5044220;28;20211;-77
2021/08/31 06:53:55;;;;;;;15.07;9.60;;;;;;;29.50;39.73;98453.56;5038517;28;20227;-77
2021/08/31 06:56:22;;;;;;;12.27;8.90;;;;;;;30.35;37.86;98464.38;5048399;28;20233;-77
2021/08/31 06:58:50;;;;;;;12.97;8.90;;;;;;;29.06;41.17;98463.72;5049844;28;20556;-75
2021/08/31 07:01:17;;;;;;;14.23;9.10;;;;;;;28.53;42.21;98462.63;5039111;28;20222;-75
2021/08/31 07:03:44;;;;;;;15.17;8.37;;;;;;;28.54;42.05;98467.00;5055117;28;20224;-75
2021/08/31 07:06:11;;;;;;;11.50;8.30;;;;;;;29.41;40.51;98465.66;5040824;28;20197;-76
2021/08/31 07:08:39;;;;;;;12.70;8.47;;;;;;;28.99;41.45;98466.06;5051137;28;20208;-78
2021/08/31 07:11:07;;;;;;;15.13;8.40;;;;;;;28.01;43.48;98463.88;5035633;28;20200;-77
2021/08/31 07:13:35;;;;;;;13.20;8.27;;;;;;;27.55;44.90;98456.69;5037027;28;20209;-78
2021/08/31 07:16:02;;;;;;;11.93;8.93;;;;;;;27.42;45.48;98461.00;5052636;28;20230;-77
2021/08/31 07:18:29;;;;;;;9.57;6.93;;;;;;;28.43;42.97;98460.09;5053155;28;20205;-77
2021/08/31 07:20:57;;;;;;;12.23;7.90;;;;;;;26.84;48.97;98453.34;5054964;28;20198;-75
2021/08/31 07:23:24;;;;;;;13.47;8.30;;;;;;;26.50;48.77;98456.19;5055260;28;20205;-77
2021/08/31 07:25:51;;;;;;;14.30;8.10;;;;;;;27.31;46.76;98453.25;5054587;28;20662;-77
2021/08/31 07:28:20;;;;;;;10.90;7.03;;;;;;;28.13;45.22;98450.47;5045855;28;20205;-77
2021/08/31 07:31:16;;;;;;;10.53;7.23;;;;;;;29.02;42.16;98466.28;5040630;28;20225;-75
2021/08/31 07:33:44;;;;;;;11.60;6.90;;;;;;;26.53;49.19;98457.53;5032350;28;20237;-78
2021/08/31 07:36:12;;;;;;;9.97;6.90;;;;;;;27.14;47.87;98466.59;5054556;28;20222;-78
2021/08/31 07:38:39;;;;;;;8.40;5.90;;;;;;;28.23;43.72;98474.97;5045764;28;20198;-77
2021/08/31 07:41:06;;;;;;;9.27;6.10;;;;;;;28.42;42.38;98483.97;5038507;28;20203;-77
2021/08/31 07:43:35;;;;;;;9.00;6.10;;;;;;;27.45;45.41;98476.03;5037010;28;20203;-82
2021/08/31 07:46:02;;;;;;;8.20;6.50;;;;;;;27.80;43.51;98480.97;5052262;28;20201;-78
2021/08/31 07:48:29;;;;;;;7.67;5.90;;;;;;;28.42;43.60;98486.72;5048136;28;20568;-76
2021/08/31 07:50:57;;;;;;;9.80;6.17;;;;;;;28.30;44.21;98489.13;5038101;28;20211;-76
2021/08/31 07:53:24;;;;;;;8.00;6.07;;;;;;;28.90;41.33;98509.09;5041801;28;20205;-76
2021/08/31 07:55:51;;;;;;;11.73;6.57;;;;;;;28.17;42.94;98502.84;5048038;28;20209;-76
2021/08/31 07:58:19;;;;;;;7.47;5.80;;;;;;;27.34;46.50;98493.75;5057479;28;20202;-78
2021/08/31 08:00:47;;;;;;;9.40;6.50;;;;;;;29.59;40.48;98501.25;5050804;28;20285;-76
2021/08/31 08:03:15;;;;;;;9.70;6.23;;;;;;;29.21;40.54;98510.09;5047846;28;20294;-77
2021/08/31 08:05:42;;;;;;;10.43;6.17;;;;;;;29.72;39.04;98516.09;5043216;28;20240;-76
2021/08/31 08:08:09;;;;;;;9.37;6.27;;;;;;;30.14;38.34;98518.34;5047466;28;20198;-77
2021/08/31 08:10:37;;;;;;;8.90;5.93;;;;;;;29.74;39.11;98520.16;5047661;28;20199;-77
2021/08/31 08:13:04;;;;;;;10.20;5.97;;;;;;;28.32;42.47;98519.03;5044206;28;20698;-77
2021/08/31 08:15:31;;;;;;;7.67;5.73;;;;;;;28.90;41.37;98526.44;5056008;28;20300;-77
2021/08/31 08:18:00;;;;;;;7.67;5.40;;;;;;;29.79;39.31;98527.50;5063187;28;20241;-77
2021/08/31 08:20:28;;;;;;;7.93;5.77;;;;;;;29.22;40.42;98530.97;5056126;28;20211;-77
2021/08/31 08:22:55;;;;;;;8.27;5.43;;;;;;;30.42;37.54;98530.84;5058533;28;20266;-77
2021/08/31 08:25:23;;;;;;;9.10;5.20;;;;;;;29.15;40.36;98533.34;5058487;28;20301;-77
2021/08/31 08:27:50;;;;;;;6.77;5.00;;;;;;;29.61;39.19;98536.72;5058432;28;20206;-77
2021/08/31 08:30:18;;;;;;;8.10;5.00;;;;;;;29.12;39.50;98550.44;5051816;28;20217;-78
2021/08/31 08:32:45;;;;;;;6.97;5.03;;;;;;;29.05;40.75;98536.31;5053835;28;20240;-77
2021/08/31 08:35:14;;;;;;;9.47;5.83;;;;;;;26.26;50.09;98521.09;5043663;28;20245;-77
2021/08/31 08:37:41;;;;;;;9.00;6.30;;;;;;;27.89;46.13;98521.16;5052125;28;20223;-76
2021/08/31 08:40:10;;;;;;;7.50;6.00;;;;;;;28.47;42.99;98535.28;5047068;28;20238;-76
2021/08/31 08:42:38;;;;;;;10.57;6.20;;;;;;;28.06;43.88;98528.81;5043589;28;20206;-77
2021/08/31 08:45:07;;;;;;;11.50;6.37;;;;;;;28.14;44.08;98536.38;5045332;28;20222;-77
2021/08/31 08:47:34;;;;;;;7.77;5.63;;;;;;;29.42;41.05;98538.78;5041188;28;20277;-77
2021/08/31 08:50:02;;;;;;;9.50;6.00;;;;;;;30.01;39.32;98542.03;5048697;28;20225;-77
2021/08/31 08:52:31;;;;;;;7.93;6.00;;;;;;;29.39;39.85;98553.16;5051851;28;20670;-77
2021/08/31 08:54:58;;;;;;;7.30;5.90;;;;;;;27.71;44.85;98551.34;5054799;28;20230;-78
2021/08/31 08:57:30;;;;;;;10.43;6.10;;;;;;;30.40;38.30;98560.66;5054795;28;20312;-77
2021/08/31 08:59:57;;;;;;;9.13;6.20;;;;;;;30.27;38.52;98564.28;5058177;28;20212;-78
2021/08/31 09:02:36;;;;;;;8.77;5.50;;;;;;;30.57;37.25;98572.59;5044252;28;20640;-77
2021/08/31 09:05:03;;;;;;;7.63;6.10;;;;;;;29.41;39.15;98576.50;5042209;28;20246;-77
2021/08/31 09:07:36;;;;;;;8.23;5.47;;;;;;;28.96;40.38;98571.09;5034337;28;20213;-77
2021/08/31 09:10:16;;;;;;;7.23;5.30;;;;;;;28.50;41.69;98562.94;5047981;28;20210;-76
2021/08/31 09:12:46;;;;;;;7.93;5.57;;;;;;;30.62;37.27;98566.13;5039661;28;20202;-77
2021/08/31 09:15:27;;;;;;;6.93;5.70;;;;;;;30.50;37.05;98568.66;5041805;28;20218;-77
2021/08/31 09:18:17;;;;;;;7.43;5.10;;;;;;;30.59;37.70;98567.56;5057981;28;20222;-77
2021/08/31 09:20:57;;;;;;;7.07;5.53;;;;;;;28.50;41.18;98562.09;5055236;28;20230;-78
2021/08/31 09:23:28;;;;;;;7.43;5.40;;;;;;;29.60;39.93;98563.41;5055648;28;20289;-78
2021/08/31 09:25:56;;;;;;;6.53;4.97;;;;;;;31.98;34.14;98580.31;5053192;28;20225;-78
2021/08/31 09:28:27;;;;;;;6.90;5.43;;;;;;;31.14;35.54;98581.75;5063278;28;20237;-78
2021/08/31 09:31:00;;;;;;;6.90;5.33;;;;;;;31.56;35.00;98583.81;5047673;28;20627;-77
2021/08/31 09:33:29;;;;;;;8.47;5.13;;;;;;;31.26;34.64;98590.28;5050326;28;20215;-77
2021/08/31 09:36:05;;;;;;;6.07;4.40;;;;;;;28.79;38.73;98590.94;5047701;28;20199;-77
2021/08/31 09:38:42;;;;;;;7.43;5.30;;;;;;;28.49;39.37;98583.28;5050817;28;20225;-77
2021/08/31 09:41:10;;;;;;;6.50;4.70;;;;;;;27.31;42.36;98584.84;5056286;28;20194;-77
2021/08/31 09:43:49;;;;;;;6.20;4.57;;;;;;;27.61;42.47;98582.47;5055537;28;20202;-77
2021/08/31 09:46:17;;;;;;;9.37;5.47;;;;;;;26.48;44.56;98580.81;5048105;28;20189;-76
2021/08/31 09:48:44;;;;;;;6.80;4.90;;;;;;;27.70;42.59;98568.88;5046313;28;20622;-77
2021/08/31 09:51:13;;;;;;;6.00;4.87;;;;;;;30.70;35.52;98579.97;5048056;28;20196;-77
2021/08/31 09:53:43;;;;;;;7.23;5.10;;;;;;;29.85;36.48;98590.34;5052175;28;20234;-77
2021/08/31 09:56:12;;;;;;;5.80;4.20;;;;;;;31.27;33.57;98589.13;5044634;28;20197;-77
2021/08/31 09:58:40;;;;;;;8.40;4.53;;;;;;;30.92;34.79;98590.13;5045896;28;20221;-77
2021/08/31 10:01:08;;;;;;;7.73;5.03;;;;;;;28.99;39.04;98582.31;5044765;28;20205;-77
2021/08/31 10:03:35;;;;;;;8.40;5.03;;;;;;;30.22;36.78;98597.47;5050857;28;20687;-78
2021/08/31 10:06:04;;;;;;;6.27;4.90;;;;;;;30.74;nan;98593.91;5055295;28;20663;-78
2021/08/31 10:08:33;;;;;;;5.87;4.33;;;;;;;30.73;35.74;98595.06;5053147;28;20206;-77
2021/08/31 10:11:03;;;;;;;7.03;5.10;;;;;;;29.74;38.29;98591.72;5054460;28;20214;-78
2021/08/31 10:13:34;;;;;;;6.73;5.27;;;;;;;30.15;37.17;98591.59;5065602;28;20213;-78
2021/08/31 10:16:02;;;;;;;6.13;5.13;;;;;;;30.62;36.75;98580.72;5069749;28;20230;-78
2021/08/31 10:18:30;;;;;;;7.17;5.00;;;;;;;30.61;35.88;98595.59;5052702;28;20229;-77
2021/08/31 10:21:02;;;;;;;6.53;4.90;;;;;;;29.65;37.52;98598.28;5052637;28;20540;-79
2021/08/31 10:23:31;;;;;;;7.10;5.33;;;;;;;28.47;40.76;98584.69;5052540;28;20285;-80
2021/08/31 10:26:30;;;;;;;7.77;5.20;;;;;;;29.84;37.29;98598.94;5052335;28;20205;-80
2021/08/31 10:29:29;;;;;;;6.50;5.30;;;;;;;29.47;37.58;98594.50;5050957;28;20293;-79
2021/08/31 10:31:58;;;;;;;5.80;4.50;;;;;;;29.94;37.16;98585.72;5043709;28;20195;-78
2021/08/31 10:34:41;;;;;;;6.93;5.00;;;;;;;28.49;38.94;98593.44;5048959;28;20229;-78
2021/08/31 10:37:13;;;;;;;7.93;4.67;;;;;;;30.12;36.66;98597.72;5045832;28;20253;-79
2021/08/31 10:39:51;;;;;;;7.87;4.93;;;;;;;31.38;34.43;98587.69;5043390;28;20302;-77
2021/08/31 10:42:42;;;;;;;7.93;5.00;;;;;;;31.05;35.16;98584.47;5032808;28;20205;-79
2021/08/31 10:45:31;;;;;;;8.30;5.27;;;;;;;30.27;34.91;98603.69;5046003;28;20230;-76
2021/08/31 10:47:59;;;;;;;7.77;4.13;;;;;;;29.14;38.15;98597.72;5037191;28;20204;-77
2021/08/31 10:50:27;;;;;;;7.07;4.60;;;;;;;28.83;39.17;98597.44;5043627;28;20199;-76
2021/08/31 10:53:02;;;;;;;5.43;4.47;;;;;;;28.68;39.08;98594.19;5035188;28;20198;-79
2021/08/31 10:55:35;;;;;;;7.10;4.93;;;;;;;29.97;37.16;98589.78;5032831;28;20307;-79
2021/08/31 10:58:06;;;;;;;5.63;4.70;;;;;;;31.00;34.08;98603.09;5055587;28;20253;-80
2021/08/31 11:00:54;;;;;;;5.80;4.50;;;;;;;31.80;32.63;98601.59;5046398;28;20203;-79
2021/08/31 11:03:38;;;;;;;6.50;4.47;;;;;;;30.93;33.81;98611.88;5033906;28;20219;-78
2021/08/31 11:06:20;;;;;;;6.53;4.67;;;;;;;29.16;37.10;98596.28;5036195;28;20262;-79
2021/08/31 11:09:13;;;;;;;5.57;4.20;;;;;;;31.52;33.95;98591.13;5034257;28;20433;-78
2021/08/31 11:11:43;;;;;;;6.50;3.70;;;;;;;29.91;35.87;98602.88;5050755;28;20213;-79
2021/08/31 11:14:13;;;;;;;6.07;4.27;;;;;;;28.85;37.73;98608.16;5037323;28;20300;-79
2021/08/31 11:16:41;;;;;;;7.20;4.13;;;;;;;31.47;33.25;98613.38;5050833;28;20234;-77
2021/08/31 11:19:25;;;;;;;6.40;4.00;;;;;;;31.94;32.36;98621.59;5046547;28;20239;-76
2021/08/31 11:21:54;;;;;;;4.73;4.13;;;;;;;30.06;35.31;98616.25;5035626;28;20200;-77
2021/08/31 11:24:21;;;;;;;7.20;3.90;;;;;;;32.56;31.39;98627.56;5043979;28;20530;-78
2021/08/31 11:26:48;;;;;;;4.75;3.85;;;;;;;29.97;34.28;98629.16;5051719;28;20204;-79
2021/08/31 11:29:17;;;;;;;5.10;3.80;;;;;;;29.61;35.95;98619.25;5049894;28;20203;-77
2021/08/31 11:31:45;;;;;;;6.23;4.33;;;;;;;31.46;33.17;98617.22;5046475;28;20291;-78
2021/08/31 11:34:12;;;;;;;5.33;3.67;;;;;;;32.59;31.01;98636.00;5049660;28;20254;-79